createdAt,value
2023-05-10T00:02:19.705Z,99.90
2023-05-10T00:04:47.695Z,99.90
2023-05-10T00:07:18.067Z,99.90
2023-05-10T00:09:46.557Z,99.90
2023-05-10T00:12:14.558Z,99.90
2023-05-10T00:14:43.980Z,99.90
2023-05-10T00:17:12.012Z,99.90
2023-05-10T00:19:40.039Z,99.90
2023-05-10T00:22:08.019Z,99.90
2023-05-10T00:24:36.074Z,99.90
2023-05-10T00:27:04.945Z,99.90
2023-05-10T00:29:34.747Z,99.90
2023-05-10T00:32:04.292Z,99.90
2023-05-10T00:34:32.486Z,99.90
2023-05-10T00:37:00.513Z,99.90
2023-05-10T00:39:29.583Z,99.90
2023-05-10T00:41:57.632Z,99.90
2023-05-10T00:44:25.647Z,99.90
2023-05-10T00:46:54.381Z,99.90
2023-05-10T00:49:23.863Z,99.90
2023-05-10T00:51:52.197Z,99.90
2023-05-10T00:54:20.721Z,99.90
2023-05-10T00:56:50.224Z,99.90
2023-05-10T00:59:18.794Z,99.90
2023-05-10T01:01:47.534Z,99.90
2023-05-10T01:04:16.733Z,99.90
2023-05-10T01:06:46.136Z,99.90
2023-05-10T01:09:14.166Z,99.90
2023-05-10T01:11:42.476Z,99.90
2023-05-10T01:14:10.630Z,99.90
2023-05-10T01:16:42.602Z,99.90
2023-05-10T01:19:20.922Z,99.90
2023-05-10T01:22:00.643Z,99.90
2023-05-10T01:24:57.311Z,99.90
2023-05-10T01:27:47.654Z,99.90
2023-05-10T01:30:52.310Z,99.90
2023-05-10T01:33:28.436Z,99.90
2023-05-10T01:36:05.544Z,99.90
2023-05-10T01:38:43.072Z,99.90
2023-05-10T01:41:19.271Z,99.90
2023-05-10T01:43:55.808Z,99.90
2023-05-10T01:46:30.920Z,99.90
2023-05-10T01:49:02.517Z,99.90
2023-05-10T01:51:38.345Z,99.90
2023-05-10T01:54:07.937Z,99.90
2023-05-10T01:56:37.772Z,99.90
2023-05-10T01:59:10.847Z,99.90
2023-05-10T02:01:39.660Z,99.90
2023-05-10T02:04:10.974Z,99.90
2023-05-10T02:06:41.617Z,99.90
2023-05-10T02:09:11.084Z,99.90
2023-05-10T02:11:40.703Z,99.90
2023-05-10T02:14:11.633Z,99.90
2023-05-10T02:16:41.617Z,99.90
2023-05-10T02:19:12.096Z,99.90
2023-05-10T02:21:42.163Z,99.90
2023-05-10T02:24:11.466Z,99.90
2023-05-10T02:26:41.300Z,99.90
2023-05-10T02:29:12.247Z,99.90
2023-05-10T02:31:40.835Z,99.90
2023-05-10T02:34:12.098Z,99.90
2023-05-10T02:36:41.056Z,99.90
2023-05-10T02:39:13.620Z,99.90
2023-05-10T02:41:43.016Z,99.90
2023-05-10T02:44:11.720Z,99.90
2023-05-10T02:46:40.141Z,99.90
2023-05-10T02:49:08.188Z,99.90
2023-05-10T02:51:39.840Z,99.90
2023-05-10T02:54:12.965Z,99.90
2023-05-10T02:56:48.108Z,99.90
2023-05-10T02:59:16.453Z,99.90
2023-05-10T03:01:44.515Z,99.90
2023-05-10T03:04:12.596Z,99.90
2023-05-10T03:06:42.532Z,99.90
2023-05-10T03:09:12.126Z,99.90
2023-05-10T03:11:53.971Z,99.90
2023-05-10T03:14:35.251Z,99.90
2023-05-10T03:17:11.437Z,99.90
2023-05-10T03:19:45.949Z,99.90
2023-05-10T03:22:21.885Z,99.90
2023-05-10T03:24:51.484Z,99.90
2023-05-10T03:27:20.108Z,99.90
2023-05-10T03:29:48.754Z,99.90
2023-05-10T03:32:16.793Z,99.90
2023-05-10T03:34:45.030Z,99.90
2023-05-10T03:37:13.010Z,99.90
2023-05-10T03:39:42.360Z,99.90
2023-05-10T03:42:12.780Z,99.90
2023-05-10T03:44:41.089Z,99.90
2023-05-10T03:47:09.394Z,99.90
2023-05-10T03:49:37.417Z,99.90
2023-05-10T03:52:06.288Z,99.90
2023-05-10T03:54:34.329Z,99.90
2023-05-10T03:57:03.910Z,99.90
2023-05-10T03:59:31.943Z,99.90
2023-05-10T04:02:00.003Z,99.90
2023-05-10T04:04:28.012Z,99.90
2023-05-10T04:06:56.059Z,99.90
2023-05-10T04:09:24.074Z,99.90
2023-05-10T04:11:52.144Z,99.90
2023-05-10T04:14:21.640Z,99.90
2023-05-10T04:16:49.695Z,99.90
2023-05-10T04:19:17.920Z,99.90
2023-05-10T04:21:46.058Z,99.90
2023-05-10T04:24:14.486Z,99.90
2023-05-10T04:26:42.494Z,99.90
2023-05-10T04:29:10.529Z,99.90
2023-05-10T04:31:39.908Z,99.90
2023-05-10T04:34:07.898Z,99.90
2023-05-10T04:36:37.523Z,99.90
2023-05-10T04:39:05.626Z,99.90
2023-05-10T04:41:33.876Z,99.90
2023-05-10T04:44:01.897Z,99.90
2023-05-10T04:46:29.939Z,99.90
2023-05-10T04:48:59.341Z,99.90
2023-05-10T04:51:27.344Z,99.90
2023-05-10T04:54:05.105Z,99.90
2023-05-10T04:56:34.356Z,99.90
2023-05-10T04:59:02.410Z,99.90
2023-05-10T05:01:30.427Z,99.90
2023-05-10T05:04:00.315Z,99.90
2023-05-10T05:06:28.464Z,99.90
2023-05-10T05:08:56.479Z,99.90
2023-05-10T05:11:24.476Z,99.90
2023-05-10T05:13:52.513Z,99.90
2023-05-10T05:16:20.596Z,99.90
2023-05-10T05:18:48.674Z,99.90
2023-05-10T05:21:18.796Z,99.90
2023-05-10T05:23:47.624Z,99.90
2023-05-10T05:26:16.060Z,99.90
2023-05-10T05:28:44.181Z,99.90
2023-05-10T05:31:12.328Z,99.90
2023-05-10T05:33:40.425Z,99.90
2023-05-10T05:36:08.951Z,99.90
2023-05-10T05:38:38.287Z,99.90
2023-05-10T05:41:06.286Z,99.90
2023-05-10T05:43:36.660Z,99.90
2023-05-10T05:46:06.435Z,99.90
2023-05-10T05:48:34.591Z,99.90
2023-05-10T05:51:02.821Z,99.90
2023-05-10T05:53:30.944Z,99.90
2023-05-10T05:56:00.868Z,99.90
2023-05-10T05:58:28.946Z,99.90
2023-05-10T06:00:56.997Z,99.90
2023-05-10T06:03:25.038Z,99.90
2023-05-10T06:05:53.046Z,99.90
2023-05-10T06:08:21.346Z,99.90
2023-05-10T06:10:49.325Z,99.90
2023-05-10T06:13:18.760Z,99.90
2023-05-10T06:15:47.244Z,99.90
2023-05-10T06:18:15.242Z,99.90
2023-05-10T06:20:44.292Z,99.90
2023-05-10T06:23:13.069Z,99.90
2023-05-10T06:25:45.099Z,99.90
2023-05-10T06:28:13.125Z,99.90
2023-05-10T06:30:42.635Z,99.90
2023-05-10T06:33:10.773Z,99.90
2023-05-10T06:35:39.884Z,99.90
2023-05-10T06:38:07.884Z,99.90
2023-05-10T06:40:36.934Z,99.90
2023-05-10T06:43:04.930Z,99.90
2023-05-10T06:45:32.918Z,99.90
2023-05-10T06:48:02.397Z,99.90
2023-05-10T06:50:30.571Z,99.90
2023-05-10T06:52:58.971Z,99.90
2023-05-10T06:55:27.383Z,99.90
2023-05-10T06:57:55.412Z,99.90
2023-05-10T07:00:23.460Z,99.90
2023-05-10T07:02:52.138Z,99.90
2023-05-10T07:05:22.109Z,99.90
2023-05-10T07:07:50.313Z,99.90
2023-05-10T07:10:18.624Z,99.90
2023-05-10T07:12:46.758Z,99.90
2023-05-10T07:15:15.059Z,99.90
2023-05-10T07:17:44.109Z,99.90
2023-05-10T07:20:14.494Z,99.90
2023-05-10T07:22:43.860Z,99.90
2023-05-10T07:25:12.659Z,99.90
2023-05-10T07:27:40.660Z,99.90
2023-05-10T07:30:09.925Z,99.90
2023-05-10T07:32:38.105Z,99.90
2023-05-10T07:35:07.724Z,99.90
2023-05-10T07:37:36.010Z,99.90
2023-05-10T07:40:05.964Z,99.90
2023-05-10T07:42:33.951Z,99.90
2023-05-10T07:45:01.924Z,99.90
2023-05-10T07:47:29.926Z,99.90
2023-05-10T07:49:57.948Z,99.80
2023-05-10T07:52:25.961Z,99.90
2023-05-10T07:54:54.566Z,99.90
2023-05-10T07:57:23.924Z,99.60
2023-05-10T07:59:52.481Z,99.70
2023-05-10T08:02:20.522Z,99.70
2023-05-10T08:04:48.547Z,99.70
2023-05-10T08:07:16.527Z,99.30
2023-05-10T08:09:44.505Z,99.30
2023-05-10T08:12:12.531Z,99.00
2023-05-10T08:14:42.096Z,98.70
2023-05-10T08:17:10.157Z,99.00
2023-05-10T08:19:38.172Z,99.10
2023-05-10T08:22:06.537Z,98.40
2023-05-10T08:24:35.801Z,98.20
2023-05-10T08:27:03.853Z,98.80
2023-05-10T08:29:38.627Z,98.10
2023-05-10T08:32:15.904Z,98.40
2023-05-10T08:34:43.917Z,98.00
2023-05-10T08:37:14.237Z,97.60
2023-05-10T08:39:42.660Z,97.70
2023-05-10T08:42:15.169Z,97.60
2023-05-10T08:44:44.426Z,97.20
2023-05-10T08:47:13.504Z,98.00
2023-05-10T08:49:43.794Z,98.10
2023-05-10T08:52:15.114Z,97.60
2023-05-10T08:54:43.915Z,97.50
2023-05-10T08:57:12.273Z,97.20
2023-05-10T08:59:40.816Z,97.60
2023-05-10T09:02:11.830Z,96.90
2023-05-10T09:04:39.932Z,97.00
2023-05-10T09:07:09.548Z,96.90
2023-05-10T09:09:38.602Z,96.60
2023-05-10T09:12:07.751Z,96.70
2023-05-10T09:14:37.844Z,96.20
2023-05-10T09:17:07.090Z,95.60
2023-05-10T09:19:35.133Z,96.30
2023-05-10T09:22:03.604Z,96.20
2023-05-10T09:24:33.101Z,96.50
2023-05-10T09:27:01.096Z,96.20
2023-05-10T09:29:40.618Z,96.00
2023-05-10T09:32:08.608Z,95.40
2023-05-10T09:34:40.825Z,95.90
2023-05-10T09:37:09.190Z,95.80
2023-05-10T09:39:39.667Z,95.90
2023-05-10T09:42:09.859Z,95.70
2023-05-10T09:44:39.046Z,95.80
2023-05-10T09:47:07.292Z,95.90
2023-05-10T09:49:35.983Z,95.60
2023-05-10T09:52:05.821Z,95.60
2023-05-10T09:54:34.547Z,95.50
2023-05-10T09:57:04.309Z,95.50
2023-05-10T09:59:36.205Z,94.50
2023-05-10T10:02:04.787Z,95.10
2023-05-10T10:04:33.142Z,94.70
2023-05-10T10:07:02.675Z,94.70
2023-05-10T10:09:31.540Z,94.20
2023-05-10T10:11:59.925Z,94.10
2023-05-10T10:14:29.546Z,94.30
2023-05-10T10:17:07.473Z,93.90
2023-05-10T10:19:37.825Z,93.10
2023-05-10T10:22:06.926Z,94.20
2023-05-10T10:24:35.441Z,93.90
2023-05-10T10:27:14.646Z,93.20
2023-05-10T10:29:51.190Z,93.20
2023-05-10T10:32:29.625Z,93.30
2023-05-10T10:34:58.506Z,92.40
2023-05-10T10:37:47.163Z,94.00
2023-05-10T10:40:32.817Z,93.10
2023-05-10T10:43:25.683Z,91.20
2023-05-10T10:46:14.824Z,92.30
2023-05-10T10:48:43.630Z,92.90
2023-05-10T10:51:12.993Z,91.70
2023-05-10T10:53:42.949Z,92.70
2023-05-10T10:56:12.614Z,92.60
2023-05-10T10:58:41.483Z,91.90
2023-05-10T11:01:20.932Z,91.70
2023-05-10T11:04:19.672Z,93.30
2023-05-10T11:06:47.773Z,91.40
2023-05-10T11:09:15.837Z,92.40
2023-05-10T11:11:56.284Z,91.50
2023-05-10T11:14:25.023Z,91.90
2023-05-10T11:16:54.507Z,92.00
2023-05-10T11:19:22.579Z,90.70
2023-05-10T11:21:51.812Z,91.60
2023-05-10T11:24:21.809Z,91.90
2023-05-10T11:26:52.533Z,91.20
2023-05-10T11:29:20.935Z,91.10
2023-05-10T11:31:50.153Z,90.50
2023-05-10T11:34:31.248Z,88.60
2023-05-10T11:37:00.172Z,90.70
2023-05-10T11:39:29.558Z,91.30
2023-05-10T11:41:58.252Z,91.60
2023-05-10T11:44:31.336Z,91.30
2023-05-10T11:47:01.016Z,90.60
2023-05-10T11:49:30.622Z,91.30
2023-05-10T11:52:06.958Z,90.60
2023-05-10T11:54:38.504Z,91.30
2023-05-10T11:57:06.606Z,91.40
2023-05-10T11:59:34.599Z,90.60
2023-05-10T12:02:02.854Z,90.70
2023-05-10T12:04:32.918Z,90.20
2023-05-10T12:07:01.085Z,91.30
2023-05-10T12:09:42.596Z,91.00
2023-05-10T12:12:11.739Z,91.00
2023-05-10T12:14:39.788Z,89.70
2023-05-10T12:17:07.766Z,90.50
2023-05-10T12:19:44.761Z,90.80
2023-05-10T12:22:12.821Z,90.40
2023-05-10T12:24:41.080Z,90.30
2023-05-10T12:27:10.817Z,90.80
2023-05-10T12:29:42.222Z,90.50
2023-05-10T12:32:11.154Z,90.40
2023-05-10T12:34:39.527Z,91.50
2023-05-10T12:37:09.032Z,90.80
2023-05-10T12:39:41.968Z,91.50
2023-05-10T12:42:10.192Z,90.30
2023-05-10T12:44:38.193Z,90.90
2023-05-10T12:47:06.844Z,89.00
2023-05-10T12:49:35.096Z,90.70
2023-05-10T12:52:03.254Z,90.40
2023-05-10T12:54:32.678Z,90.20
2023-05-10T12:57:00.779Z,90.70
2023-05-10T12:59:29.022Z,90.40
2023-05-10T13:01:57.016Z,90.40
2023-05-10T13:04:25.091Z,90.10
2023-05-10T13:06:53.101Z,90.80
2023-05-10T13:09:21.437Z,88.90
2023-05-10T13:11:51.366Z,90.50
2023-05-10T13:14:21.354Z,89.20
2023-05-10T13:16:49.464Z,90.50
2023-05-10T13:19:18.504Z,88.30
2023-05-10T13:21:46.594Z,88.80
2023-05-10T13:24:15.256Z,89.70
2023-05-10T13:26:43.321Z,87.50
2023-05-10T13:29:12.709Z,89.00
2023-05-10T13:31:40.879Z,89.00
2023-05-10T13:34:08.989Z,87.60
2023-05-10T13:36:37.008Z,89.30
2023-05-10T13:39:06.322Z,89.00
2023-05-10T13:41:34.407Z,87.30
2023-05-10T13:44:02.433Z,88.50
2023-05-10T13:46:32.061Z,88.80
2023-05-10T13:49:00.116Z,87.50
2023-05-10T13:51:28.132Z,88.70
2023-05-10T13:53:56.113Z,89.00
2023-05-10T13:56:24.119Z,89.10
2023-05-10T13:58:52.241Z,90.50
2023-05-10T14:01:20.484Z,90.20
2023-05-10T14:03:50.697Z,89.50
2023-05-10T14:06:18.901Z,86.40
2023-05-10T14:08:47.065Z,87.40
2023-05-10T14:11:15.293Z,86.50
2023-05-10T14:13:43.564Z,87.00
2023-05-10T14:16:11.770Z,87.10
2023-05-10T14:18:39.876Z,86.20
2023-05-10T14:21:09.421Z,85.70
2023-05-10T14:23:37.561Z,87.40
2023-05-10T14:26:05.593Z,86.20
2023-05-10T14:28:33.736Z,87.50
2023-05-10T14:31:01.834Z,89.10
2023-05-10T14:33:29.866Z,89.30
2023-05-10T14:35:58.591Z,89.60
2023-05-10T14:38:28.213Z,88.70
2023-05-10T14:40:56.197Z,89.90
2023-05-10T14:43:24.202Z,89.80
2023-05-10T14:45:52.360Z,87.30
2023-05-10T14:48:22.494Z,87.90
2023-05-10T14:50:50.842Z,85.70
2023-05-10T14:53:18.974Z,87.70
2023-05-10T14:55:48.356Z,90.40
2023-05-10T14:58:16.364Z,87.90
2023-05-10T15:00:44.617Z,89.20
2023-05-10T15:03:13.094Z,89.50
2023-05-10T15:05:41.717Z,90.40
2023-05-10T15:08:10.353Z,90.50
2023-05-10T15:10:38.825Z,91.00
2023-05-10T15:13:08.230Z,90.60
2023-05-10T15:15:36.312Z,90.40
2023-05-10T15:18:05.721Z,90.50
2023-05-10T15:20:33.852Z,90.60
2023-05-10T15:23:01.833Z,90.60
2023-05-10T15:25:29.900Z,90.70
2023-05-10T15:27:57.919Z,90.30
2023-05-10T15:30:27.437Z,90.30
2023-05-10T15:32:55.736Z,90.40
2023-05-10T15:35:23.793Z,89.40
2023-05-10T15:37:51.812Z,88.80
2023-05-10T15:40:19.854Z,89.70
2023-05-10T15:42:47.841Z,88.50
2023-05-10T15:45:16.507Z,88.30
2023-05-10T15:47:46.387Z,89.30
2023-05-10T15:50:14.516Z,90.00
2023-05-10T15:52:42.756Z,88.10
2023-05-10T15:55:13.209Z,89.40
2023-05-10T15:57:42.365Z,88.10
2023-05-10T16:00:12.046Z,89.60
2023-05-10T16:02:40.521Z,88.70
2023-05-10T16:05:10.981Z,88.80
2023-05-10T16:07:40.174Z,90.00
2023-05-10T16:10:10.279Z,90.20
2023-05-10T16:12:38.382Z,90.40
2023-05-10T16:15:07.260Z,90.60
2023-05-10T16:17:35.324Z,90.20
2023-05-10T16:20:03.474Z,90.80
2023-05-10T16:22:32.890Z,90.70
2023-05-10T16:25:00.889Z,91.00
2023-05-10T16:27:30.366Z,92.40
2023-05-10T16:29:58.435Z,94.90
2023-05-10T16:32:26.990Z,97.00
2023-05-10T16:34:55.398Z,98.20
2023-05-10T16:37:23.850Z,98.90
2023-05-10T16:39:53.289Z,98.80
2023-05-10T16:42:21.654Z,99.20
2023-05-10T16:44:49.704Z,99.40
2023-05-10T16:47:17.697Z,99.90
2023-05-10T16:49:45.733Z,99.70
2023-05-10T16:52:13.926Z,99.50
2023-05-10T16:54:42.332Z,99.70
2023-05-10T16:57:11.698Z,99.90
2023-05-10T16:59:39.714Z,99.90
2023-05-10T17:02:08.390Z,99.90
2023-05-10T17:04:36.558Z,99.90
2023-05-10T17:07:04.674Z,99.90
2023-05-10T17:09:32.683Z,99.90
2023-05-10T17:12:00.690Z,99.90
2023-05-10T17:14:30.318Z,99.90
2023-05-10T17:16:58.490Z,99.90
2023-05-10T17:19:26.688Z,99.90
2023-05-10T17:21:54.662Z,99.90
2023-05-10T17:24:22.705Z,99.90
2023-05-10T17:26:50.707Z,99.90
2023-05-10T17:29:18.840Z,99.90
2023-05-10T17:31:48.239Z,99.90
2023-05-10T17:34:16.243Z,99.90
2023-05-10T17:36:44.246Z,99.90
2023-05-10T17:39:12.421Z,99.90
2023-05-10T17:41:40.493Z,99.90
2023-05-10T17:44:08.510Z,99.90
2023-05-10T17:46:36.831Z,99.90
2023-05-10T17:49:06.215Z,99.90
2023-05-10T17:51:34.213Z,99.90
2023-05-10T17:54:02.460Z,99.90
2023-05-10T17:56:30.472Z,99.90
2023-05-10T17:58:58.444Z,99.90
2023-05-10T18:01:26.484Z,99.90
2023-05-10T18:03:54.505Z,99.90
2023-05-10T18:06:23.933Z,99.90
2023-05-10T18:08:51.868Z,99.90
2023-05-10T18:11:20.005Z,99.90
2023-05-10T18:13:47.948Z,99.90
2023-05-10T18:16:16.160Z,99.90
2023-05-10T18:18:44.314Z,99.90
2023-05-10T18:21:12.362Z,99.90
2023-05-10T18:23:49.012Z,99.90
2023-05-10T18:26:18.129Z,99.90
2023-05-10T18:28:46.182Z,99.90
2023-05-10T18:31:14.273Z,99.90
2023-05-10T18:33:48.078Z,99.90
2023-05-10T18:36:16.838Z,99.90
2023-05-10T18:38:46.652Z,99.90
2023-05-10T18:41:14.668Z,99.90
2023-05-10T18:43:43.403Z,99.90
2023-05-10T18:46:11.431Z,99.90
2023-05-10T18:48:39.519Z,99.90
2023-05-10T18:51:07.629Z,99.90
2023-05-10T18:53:35.731Z,99.90
2023-05-10T18:56:05.189Z,99.90
2023-05-10T18:58:33.730Z,99.90
2023-05-10T19:01:02.111Z,99.90
2023-05-10T19:03:30.580Z,99.90
2023-05-10T19:05:58.999Z,99.90
2023-05-10T19:08:27.240Z,99.90
2023-05-10T19:10:55.217Z,99.90
2023-05-10T19:13:27.303Z,99.90
2023-05-10T19:16:06.120Z,99.90
2023-05-10T19:18:34.591Z,99.90
2023-05-10T19:21:04.651Z,99.90
2023-05-10T19:23:33.680Z,99.90
2023-05-10T19:26:01.983Z,99.90
2023-05-10T19:28:31.667Z,99.90
2023-05-10T19:30:59.646Z,99.90
2023-05-10T19:33:27.659Z,99.90
2023-05-10T19:35:56.460Z,99.90
2023-05-10T19:38:25.746Z,99.90
2023-05-10T19:40:58.100Z,99.90
2023-05-10T19:43:26.341Z,99.90
2023-05-10T19:45:56.154Z,99.90
2023-05-10T19:48:24.127Z,99.90
2023-05-10T19:50:52.571Z,99.90
2023-05-10T19:53:20.659Z,99.90
2023-05-10T19:55:48.836Z,99.90
2023-05-10T19:58:17.860Z,99.90
2023-05-10T20:00:46.111Z,99.90
2023-05-10T20:03:15.582Z,99.90
2023-05-10T20:05:43.614Z,99.90
2023-05-10T20:08:11.628Z,99.90
2023-05-10T20:10:39.635Z,99.90
2023-05-10T20:13:07.737Z,99.90
2023-05-10T20:15:35.756Z,99.90
2023-05-10T20:18:04.966Z,99.90
2023-05-10T20:20:34.501Z,99.90
2023-05-10T20:23:02.706Z,99.90
2023-05-10T20:25:30.798Z,99.90
2023-05-10T20:27:58.916Z,99.90
2023-05-10T20:30:26.946Z,99.90
2023-05-10T20:32:55.048Z,99.90
2023-05-10T20:35:23.071Z,99.90
2023-05-10T20:37:52.442Z,99.90
2023-05-10T20:40:20.472Z,99.90
2023-05-10T20:42:49.625Z,99.90
2023-05-10T20:45:17.830Z,99.90
2023-05-10T20:47:45.921Z,99.90
2023-05-10T20:50:14.026Z,99.90
2023-05-10T20:52:42.076Z,99.90
2023-05-10T20:55:11.772Z,99.90
2023-05-10T20:57:39.786Z,99.90
2023-05-10T21:00:09.468Z,99.90
2023-05-10T21:02:37.547Z,99.90
2023-05-10T21:05:06.261Z,99.90
2023-05-10T21:07:34.298Z,99.90
2023-05-10T21:10:02.320Z,99.90
2023-05-10T21:12:31.774Z,99.90
2023-05-10T21:14:59.771Z,99.90
2023-05-10T21:17:28.141Z,99.90
2023-05-10T21:19:56.135Z,99.90
2023-05-10T21:22:24.135Z,99.90
2023-05-10T21:24:52.138Z,99.90
2023-05-10T21:27:20.180Z,99.90
2023-05-10T21:29:49.570Z,99.90
2023-05-10T21:32:17.574Z,99.90
2023-05-10T21:34:45.616Z,99.90
2023-05-10T21:37:13.605Z,99.90
2023-05-10T21:39:41.575Z,99.90
2023-05-10T21:42:09.558Z,99.90
2023-05-10T21:44:38.664Z,99.90
2023-05-10T21:47:08.059Z,99.90
2023-05-10T21:49:36.213Z,99.90
2023-05-10T21:52:04.397Z,99.90
2023-05-10T21:54:32.450Z,99.90
2023-05-10T21:57:00.457Z,99.90
2023-05-10T21:59:28.512Z,99.90
2023-05-10T22:01:56.570Z,99.90
2023-05-10T22:04:25.995Z,99.90
2023-05-10T22:06:53.959Z,99.90
2023-05-10T22:09:24.285Z,99.90
2023-05-10T22:11:52.435Z,99.90
2023-05-10T22:14:20.443Z,99.90
2023-05-10T22:16:48.505Z,99.90
2023-05-10T22:19:16.562Z,99.90
2023-05-10T22:21:45.920Z,99.90
2023-05-10T22:24:13.902Z,99.90
2023-05-10T22:26:41.899Z,99.90
2023-05-10T22:29:09.889Z,99.90
2023-05-10T22:31:38.275Z,99.90
2023-05-10T22:34:06.373Z,99.90
2023-05-10T22:36:34.372Z,99.90
2023-05-10T22:39:03.745Z,99.90
2023-05-10T22:41:31.733Z,99.90
2023-05-10T22:43:59.836Z,99.90
2023-05-10T22:46:29.457Z,99.90
2023-05-10T22:48:57.598Z,99.90
2023-05-10T22:51:25.661Z,99.90
2023-05-10T22:53:53.640Z,99.90
2023-05-10T22:56:23.349Z,99.90
2023-05-10T22:58:52.082Z,99.90
2023-05-10T23:01:20.101Z,99.90
2023-05-10T23:03:51.228Z,99.90
2023-05-10T23:06:19.683Z,99.90
2023-05-10T23:08:48.118Z,99.90
2023-05-10T23:11:16.380Z,99.90
2023-05-10T23:13:51.797Z,99.90
2023-05-10T23:16:19.810Z,99.90
2023-05-10T23:18:48.296Z,99.90
2023-05-10T23:21:17.399Z,99.90
2023-05-10T23:23:45.430Z,99.90
2023-05-10T23:26:13.550Z,99.90
2023-05-10T23:28:41.512Z,99.90
2023-05-10T23:31:11.070Z,99.90
2023-05-10T23:33:45.237Z,99.90
2023-05-10T23:36:13.248Z,99.90
2023-05-10T23:38:41.305Z,99.90
2023-05-10T23:41:09.301Z,99.90
2023-05-10T23:43:37.370Z,99.90
2023-05-10T23:46:06.493Z,99.90
2023-05-10T23:48:35.993Z,99.90
2023-05-10T23:51:04.125Z,99.90
2023-05-10T23:53:32.134Z,99.90
2023-05-10T23:56:00.183Z,99.90
2023-05-10T23:58:28.205Z,99.90
